Home   Weather   Germany   Stassfurt   Past weeks
Flag for Germany

Past Weather in Stassfurt, Saxony-Anhalt, Germany — Yesterday and Last 2 Weeks

Currently: 59 °F. Clear. (Weather station: Leipzig-Schkeuditz, Germany). See more current weather

Past Weather in Stassfurt — Graph

°F

Stassfurt Temperature Yesterday

Maximum temperature yesterday: 81 °F (at 3:50 pm)
Minimum temperature yesterday: 54 °F (at 5:20 am)
Average temperature yesterday: 68 °F

High & Low Weather Summary for the Past Weeks

 TemperatureHumidityPressure
High97 °F (Aug 4, 2:50 pm)100% (Jul 30, 2:50 am)30.33 "Hg (Jul 30, 2:50 am)
Low50 °F (Jul 28, 4:50 am)27% (Aug 4, 4:50 pm)29.71 "Hg (Jul 25, 5:50 pm)
Average70 °F61%30.05 "Hg
* Reported Jul 25 2:50 am — Aug 9 1:20 am, Stassfurt. Weather by CustomWeather, © 2022

Note: Actual official high and low records may vary slightly from our data, if they occured in-between our weather recording intervals... More about our weather records

Stassfurt Weather History for the Previous 24 Hours

Scroll right to see more
 ConditionsComfort  
Time TempWeatherWind HumidityBarometerVisibility
1:20 am
Tue, Aug 9
63 °FClear.8 mph59%30.27 "Hg10 mi
12:50 am66 °FClear.7 mph56%30.27 "Hg10 mi
12:20 am66 °FClear.8 mph56%30.27 "Hg10 mi
11:20 pm
Mon, Aug 8
66 °FClear.7 mph56%30.27 "Hg10 mi
10:50 pm66 °FClear.6 mph56%30.27 "Hg10 mi
10:20 pm68 °FClear.6 mph53%30.27 "Hg10 mi
9:50 pm68 °FClear.5 mph53%30.24 "Hg10 mi
9:20 pm70 °FClear.6 mph50%30.24 "Hg10 mi
8:50 pm72 °FClear.5 mph47%30.24 "Hg10 mi
8:20 pm73 °FSunny.6 mph44%30.24 "Hg10 mi
7:50 pm77 °FSunny.6 mph39%30.21 "Hg10 mi
6:50 pm79 °FPassing clouds.8 mph34%30.21 "HgN/A
6:20 pm77 °FPassing clouds.8 mph39%30.21 "HgN/A
5:50 pm79 °FPassing clouds.6 mph34%30.21 "HgN/A
5:20 pm81 °FPassing clouds.7 mph34%30.21 "HgN/A
4:50 pm81 °FSunny.6 mph32%30.21 "Hg10 mi
4:20 pm81 °FSunny.6 mph32%30.21 "Hg10 mi
3:50 pm81 °FSunny.6 mph34%30.24 "Hg10 mi
2:20 pm79 °FPassing clouds.7 mph34%30.24 "HgN/A
1:50 pm79 °FSunny.6 mph34%30.24 "Hg10 mi
1:20 pm79 °FSunny.7 mph34%30.24 "Hg10 mi
12:20 pm75 °FPassing clouds.7 mph36%30.24 "HgN/A
11:50 am75 °FSunny.3 mph39%30.27 "Hg10 mi
11:20 am75 °FPassing clouds.5 mph41%30.27 "HgN/A
10:50 am73 °FPassing clouds.6 mph44%30.27 "HgN/A
10:20 am72 °FSunny.3 mph47%30.27 "Hg10 mi
9:50 am72 °FSunny.2 mph44%30.24 "Hg10 mi
9:20 am70 °FSunny.2 mph50%30.24 "Hg10 mi
8:50 am66 °FSunny.2 mph56%30.24 "Hg10 mi
8:20 am63 °FPassing clouds.3 mph59%30.24 "HgN/A
7:50 am59 °FPassing clouds.5 mph68%30.24 "HgN/A
7:20 am59 °FSunny.5 mph68%30.24 "Hg10 mi
6:50 am57 °FSunny.5 mph67%30.24 "Hg10 mi
6:20 am54 °FSunny.5 mph77%30.21 "Hg10 mi
5:50 am54 °FPassing clouds.3 mph72%30.21 "HgN/A
5:20 am54 °FClear.2 mph72%30.21 "Hg10 mi
4:50 am55 °FClear.6 mph67%30.21 "Hg10 mi
4:20 am57 °FClear.7 mph63%30.21 "Hg10 mi
3:50 am57 °FClear.8 mph63%30.21 "Hg10 mi
3:20 am57 °FClear.8 mph63%30.21 "Hg10 mi
Weather by CustomWeather, © 2022

See weather overview